sensor_id;sensor_type;location;lat;lon;timestamp;pressure;altitude;pressure_sealevel;temperature;humidity
44297;BME280;51842;47.450;8.654;2023-03-25T00:00:13;95219.03;;;6.19;100.00
44297;BME280;51842;47.450;8.654;2023-03-25T00:02:51;95221.63;;;6.14;100.00
44297;BME280;51842;47.450;8.654;2023-03-25T00:05:20;95213.06;;;6.07;100.00
44297;BME280;51842;47.450;8.654;2023-03-25T00:07:51;95215.69;;;6.07;100.00
44297;BME280;51842;47.450;8.654;2023-03-25T00:10:18;95215.47;;;6.09;100.00
44297;BME280;51842;47.450;8.654;2023-03-25T00:12:44;95231.88;;;6.11;100.00
44297;BME280;51842;47.450;8.654;2023-03-25T00:15:12;95244.78;;;6.07;100.00
44297;BME280;51842;47.450;8.654;2023-03-25T00:17:38;95250.06;;;6.07;100.00
44297;BME280;51842;47.450;8.654;2023-03-25T00:20:07;95267.22;;;6.05;100.00
44297;BME280;51842;47.450;8.654;2023-03-25T00:22:34;95273.16;;;6.12;100.00
44297;BME280;51842;47.450;8.654;2023-03-25T00:25:09;95276.22;;;6.03;100.00
44297;BME280;51842;47.450;8.654;2023-03-25T00:27:35;95265.81;;;5.97;100.00
44297;BME280;51842;47.450;8.654;2023-03-25T00:30:02;95274.94;;;5.89;100.00
44297;BME280;51842;47.450;8.654;2023-03-25T00:32:28;95266.59;;;5.80;100.00
44297;BME280;51842;47.450;8.654;2023-03-25T00:34:57;95277.88;;;5.76;100.00
44297;BME280;51842;47.450;8.654;2023-03-25T00:37:24;95282.94;;;5.77;100.00
44297;BME280;51842;47.450;8.654;2023-03-25T00:39:51;95251.41;;;5.71;100.00
44297;BME280;51842;47.450;8.654;2023-03-25T00:42:18;95244.75;;;5.68;100.00
44297;BME280;51842;47.450;8.654;2023-03-25T00:44:51;95233.88;;;5.65;100.00
44297;BME280;51842;47.450;8.654;2023-03-25T00:47:18;95210.56;;;5.62;100.00
44297;BME280;51842;47.450;8.654;2023-03-25T00:49:47;95231.53;;;5.68;99.59
44297;BME280;51842;47.450;8.654;2023-03-25T00:52:14;95232.09;;;5.70;100.00
44297;BME280;51842;47.450;8.654;2023-03-25T00:54:42;95236.88;;;5.73;100.00
44297;BME280;51842;47.450;8.654;2023-03-25T00:57:08;95236.09;;;5.73;100.00
44297;BME280;51842;47.450;8.654;2023-03-25T00:59:34;95235.78;;;5.69;100.00
44297;BME280;51842;47.450;8.654;2023-03-25T01:02:00;95218.91;;;5.70;100.00
44297;BME280;51842;47.450;8.654;2023-03-25T01:04:27;95218.06;;;5.70;100.00
44297;BME280;51842;47.450;8.654;2023-03-25T01:06:54;95224.97;;;5.71;100.00
44297;BME280;51842;47.450;8.654;2023-03-25T01:09:20;95217.91;;;5.76;100.00
44297;BME280;51842;47.450;8.654;2023-03-25T01:11:48;95225.59;;;5.78;100.00
44297;BME280;51842;47.450;8.654;2023-03-25T01:14:20;95213.44;;;5.77;100.00
44297;BME280;51842;47.450;8.654;2023-03-25T01:16:49;95205.16;;;5.73;100.00
44297;BME280;51842;47.450;8.654;2023-03-25T01:19:15;95212.56;;;5.71;100.00
44297;BME280;51842;47.450;8.654;2023-03-25T01:21:41;95186.66;;;5.73;100.00
44297;BME280;51842;47.450;8.654;2023-03-25T01:24:13;95196.94;;;5.70;100.00
44297;BME280;51842;47.450;8.654;2023-03-25T01:26:42;95186.34;;;5.70;98.77
44297;BME280;51842;47.450;8.654;2023-03-25T01:29:16;95197.75;;;5.70;98.71
44297;BME280;51842;47.450;8.654;2023-03-25T01:31:43;95197.22;;;5.73;99.51
44297;BME280;51842;47.450;8.654;2023-03-25T01:34:09;95191.41;;;5.71;99.62
44297;BME280;51842;47.450;8.654;2023-03-25T01:36:36;95200.31;;;5.65;99.46
44297;BME280;51842;47.450;8.654;2023-03-25T01:39:07;95206.06;;;5.62;99.91
44297;BME280;51842;47.450;8.654;2023-03-25T01:41:35;95213.91;;;5.57;99.83
44297;BME280;51842;47.450;8.654;2023-03-25T01:46:49;95213.13;;;5.56;99.90
44297;BME280;51842;47.450;8.654;2023-03-25T01:49:43;95216.34;;;5.59;98.91
44297;BME280;51842;47.450;8.654;2023-03-25T01:52:21;95212.94;;;5.63;98.57
44297;BME280;51842;47.450;8.654;2023-03-25T01:54:53;95212.94;;;5.63;98.86
44297;BME280;51842;47.450;8.654;2023-03-25T01:57:23;95198.22;;;5.67;98.77
44297;BME280;51842;47.450;8.654;2023-03-25T01:59:53;95193.50;;;5.69;98.41
44297;BME280;51842;47.450;8.654;2023-03-25T02:02:22;95182.38;;;5.67;97.54
44297;BME280;51842;47.450;8.654;2023-03-25T02:05:17;95182.13;;;5.69;98.18
44297;BME280;51842;47.450;8.654;2023-03-25T02:07:48;95186.34;;;5.70;98.61
44297;BME280;51842;47.450;8.654;2023-03-25T02:10:16;95179.00;;;5.72;98.70
44297;BME280;51842;47.450;8.654;2023-03-25T02:12:42;95194.09;;;5.76;98.33
44297;BME280;51842;47.450;8.654;2023-03-25T02:15:14;95210.84;;;5.82;98.22
44297;BME280;51842;47.450;8.654;2023-03-25T02:27:36;95180.75;;;5.83;99.27
44297;BME280;51842;47.450;8.654;2023-03-25T02:36:45;95168.69;;;5.70;98.59
44297;BME280;51842;47.450;8.654;2023-03-25T02:45:02;95170.84;;;5.56;100.00
44297;BME280;51842;47.450;8.654;2023-03-25T02:47:37;95171.59;;;5.52;100.00
44297;BME280;51842;47.450;8.654;2023-03-25T02:50:15;95172.59;;;5.51;100.00
44297;BME280;51842;47.450;8.654;2023-03-25T02:52:58;95171.59;;;5.52;100.00
44297;BME280;51842;47.450;8.654;2023-03-25T02:55:28;95169.25;;;5.55;100.00
44297;BME280;51842;47.450;8.654;2023-03-25T02:57:58;95171.91;;;5.55;100.00
44297;BME280;51842;47.450;8.654;2023-03-25T03:00:30;95172.38;;;5.52;100.00
44297;BME280;51842;47.450;8.654;2023-03-25T03:03:01;95205.50;;;5.60;100.00
44297;BME280;51842;47.450;8.654;2023-03-25T03:05:39;95220.34;;;5.61;100.00
44297;BME280;51842;47.450;8.654;2023-03-25T03:18:01;95302.78;;;5.01;100.00
44297;BME280;51842;47.450;8.654;2023-03-25T03:20:43;95304.41;;;4.73;100.00
44297;BME280;51842;47.450;8.654;2023-03-25T03:23:50;95314.63;;;4.58;100.00
44297;BME280;51842;47.450;8.654;2023-03-25T03:32:10;95338.06;;;4.19;100.00
44297;BME280;51842;47.450;8.654;2023-03-25T03:34:52;95348.28;;;4.15;100.00
44297;BME280;51842;47.450;8.654;2023-03-25T03:37:40;95332.00;;;4.07;100.00
44297;BME280;51842;47.450;8.654;2023-03-25T03:40:18;95319.84;;;4.06;100.00
44297;BME280;51842;47.450;8.654;2023-03-25T03:43:06;95325.00;;;4.01;100.00
44297;BME280;51842;47.450;8.654;2023-03-25T03:45:44;95321.81;;;3.99;100.00
44297;BME280;51842;47.450;8.654;2023-03-25T03:48:59;95320.31;;;3.91;100.00
44297;BME280;51842;47.450;8.654;2023-03-25T03:51:45;95323.41;;;3.88;100.00
44297;BME280;51842;47.450;8.654;2023-03-25T03:54:24;95304.94;;;3.88;100.00
44297;BME280;51842;47.450;8.654;2023-03-25T03:57:12;95312.50;;;3.72;100.00
44297;BME280;51842;47.450;8.654;2023-03-25T04:00:47;95315.59;;;3.69;100.00
44297;BME280;51842;47.450;8.654;2023-03-25T04:03:21;95313.84;;;3.63;100.00
44297;BME280;51842;47.450;8.654;2023-03-25T04:06:00;95318.13;;;3.64;100.00
44297;BME280;51842;47.450;8.654;2023-03-25T04:09:14;95302.31;;;3.64;100.00
44297;BME280;51842;47.450;8.654;2023-03-25T04:12:15;95310.78;;;3.66;100.00
44297;BME280;51842;47.450;8.654;2023-03-25T04:14:43;95298.88;;;3.64;100.00
44297;BME280;51842;47.450;8.654;2023-03-25T04:17:10;95300.03;;;3.68;100.00
44297;BME280;51842;47.450;8.654;2023-03-25T04:19:36;95297.03;;;3.64;100.00
44297;BME280;51842;47.450;8.654;2023-03-25T04:22:05;95311.59;;;3.67;100.00
44297;BME280;51842;47.450;8.654;2023-03-25T04:24:32;95300.22;;;3.66;100.00
44297;BME280;51842;47.450;8.654;2023-03-25T04:27:00;95291.31;;;3.67;100.00
44297;BME280;51842;47.450;8.654;2023-03-25T04:29:32;95272.75;;;3.74;100.00
44297;BME280;51842;47.450;8.654;2023-03-25T04:32:00;95283.31;;;3.74;100.00
44297;BME280;51842;47.450;8.654;2023-03-25T04:34:27;95278.25;;;3.72;100.00
44297;BME280;51842;47.450;8.654;2023-03-25T04:36:54;95279.06;;;3.73;100.00
44297;BME280;51842;47.450;8.654;2023-03-25T04:39:20;95280.66;;;3.74;100.00
44297;BME280;51842;47.450;8.654;2023-03-25T04:41:51;95281.59;;;3.68;100.00
44297;BME280;51842;47.450;8.654;2023-03-25T04:44:32;95283.63;;;3.66;100.00
44297;BME280;51842;47.450;8.654;2023-03-25T04:47:01;95273.34;;;3.64;100.00
44297;BME280;51842;47.450;8.654;2023-03-25T04:49:27;95276.78;;;3.65;100.00
44297;BME280;51842;47.450;8.654;2023-03-25T04:51:54;95278.38;;;3.66;100.00
44297;BME280;51842;47.450;8.654;2023-03-25T04:54:22;95277.09;;;3.68;100.00
44297;BME280;51842;47.450;8.654;2023-03-25T04:56:49;95270.00;;;3.69;100.00
44297;BME280;51842;47.450;8.654;2023-03-25T04:59:17;95269.88;;;3.76;100.00
44297;BME280;51842;47.450;8.654;2023-03-25T05:01:45;95278.84;;;3.75;100.00
44297;BME280;51842;47.450;8.654;2023-03-25T05:04:15;95277.00;;;3.75;100.00
44297;BME280;51842;47.450;8.654;2023-03-25T05:06:47;95278.63;;;3.76;100.00
44297;BME280;51842;47.450;8.654;2023-03-25T05:09:19;95287.78;;;3.74;100.00
44297;BME280;51842;47.450;8.654;2023-03-25T05:11:52;95297.72;;;3.71;100.00
44297;BME280;51842;47.450;8.654;2023-03-25T05:14:21;95301.16;;;3.72;100.00
44297;BME280;51842;47.450;8.654;2023-03-25T05:16:47;95307.00;;;3.74;100.00
44297;BME280;51842;47.450;8.654;2023-03-25T05:19:15;95311.50;;;3.74;100.00
44297;BME280;51842;47.450;8.654;2023-03-25T05:21:44;95303.34;;;3.75;100.00
44297;BME280;51842;47.450;8.654;2023-03-25T05:24:12;95298.19;;;3.68;100.00
44297;BME280;51842;47.450;8.654;2023-03-25T05:26:41;95308.25;;;3.71;100.00
44297;BME280;51842;47.450;8.654;2023-03-25T05:29:14;95308.84;;;3.74;100.00
44297;BME280;51842;47.450;8.654;2023-03-25T05:31:42;95319.94;;;3.76;100.00
44297;BME280;51842;47.450;8.654;2023-03-25T05:34:13;95321.31;;;3.78;100.00
44297;BME280;51842;47.450;8.654;2023-03-25T05:36:41;95321.56;;;3.77;100.00
44297;BME280;51842;47.450;8.654;2023-03-25T05:39:08;95323.50;;;3.81;100.00
44297;BME280;51842;47.450;8.654;2023-03-25T05:41:35;95316.19;;;3.83;100.00
44297;BME280;51842;47.450;8.654;2023-03-25T05:44:09;95295.44;;;3.87;100.00
44297;BME280;51842;47.450;8.654;2023-03-25T05:46:39;95294.19;;;3.89;100.00
44297;BME280;51842;47.450;8.654;2023-03-25T05:49:05;95300.84;;;3.92;100.00
44297;BME280;51842;47.450;8.654;2023-03-25T05:51:33;95297.16;;;3.93;100.00
44297;BME280;51842;47.450;8.654;2023-03-25T05:54:03;95293.72;;;3.92;100.00
44297;BME280;51842;47.450;8.654;2023-03-25T05:56:33;95298.09;;;3.99;100.00
44297;BME280;51842;47.450;8.654;2023-03-25T05:59:01;95299.22;;;4.03;100.00
44297;BME280;51842;47.450;8.654;2023-03-25T06:01:28;95295.88;;;4.07;100.00
44297;BME280;51842;47.450;8.654;2023-03-25T06:03:54;95293.16;;;4.14;100.00
44297;BME280;51842;47.450;8.654;2023-03-25T06:06:21;95298.75;;;4.17;100.00
44297;BME280;51842;47.450;8.654;2023-03-25T06:08:50;95297.25;;;4.22;100.00
44297;BME280;51842;47.450;8.654;2023-03-25T06:11:19;95292.31;;;4.25;100.00
44297;BME280;51842;47.450;8.654;2023-03-25T06:13:47;95295.41;;;4.34;100.00
44297;BME280;51842;47.450;8.654;2023-03-25T06:16:22;95291.06;;;4.39;100.00
44297;BME280;51842;47.450;8.654;2023-03-25T06:18:52;95305.25;;;4.50;100.00
44297;BME280;51842;47.450;8.654;2023-03-25T06:21:26;95290.66;;;4.48;100.00
44297;BME280;51842;47.450;8.654;2023-03-25T06:23:53;95294.09;;;4.60;100.00
44297;BME280;51842;47.450;8.654;2023-03-25T06:26:22;95295.91;;;4.71;100.00
44297;BME280;51842;47.450;8.654;2023-03-25T06:28:49;95297.59;;;4.77;100.00
44297;BME280;51842;47.450;8.654;2023-03-25T06:31:22;95301.16;;;4.83;100.00
44297;BME280;51842;47.450;8.654;2023-03-25T06:33:52;95296.75;;;4.88;100.00
44297;BME280;51842;47.450;8.654;2023-03-25T06:36:19;95296.53;;;4.90;100.00
44297;BME280;51842;47.450;8.654;2023-03-25T06:38:48;95297.09;;;4.92;100.00
44297;BME280;51842;47.450;8.654;2023-03-25T06:41:17;95293.16;;;4.95;100.00
44297;BME280;51842;47.450;8.654;2023-03-25T06:43:48;95303.22;;;5.09;100.00
44297;BME280;51842;47.450;8.654;2023-03-25T06:46:15;95301.16;;;5.12;100.00
44297;BME280;51842;47.450;8.654;2023-03-25T06:48:41;95299.88;;;5.14;100.00
44297;BME280;51842;47.450;8.654;2023-03-25T06:51:07;95295.72;;;5.18;100.00
44297;BME280;51842;47.450;8.654;2023-03-25T06:53:33;95297.31;;;5.19;100.00
44297;BME280;51842;47.450;8.654;2023-03-25T06:55:59;95303.91;;;5.33;100.00
44297;BME280;51842;47.450;8.654;2023-03-25T06:58:25;95302.63;;;5.36;100.00
44297;BME280;51842;47.450;8.654;2023-03-25T07:01:00;95292.94;;;5.42;100.00
44297;BME280;51842;47.450;8.654;2023-03-25T07:03:30;95300.22;;;5.51;100.00
44297;BME280;51842;47.450;8.654;2023-03-25T07:05:56;95303.84;;;5.62;100.00
44297;BME280;51842;47.450;8.654;2023-03-25T07:08:22;95303.38;;;5.65;100.00
44297;BME280;51842;47.450;8.654;2023-03-25T07:10:48;95301.94;;;5.74;100.00
44297;BME280;51842;47.450;8.654;2023-03-25T07:13:15;95301.84;;;6.03;100.00
44297;BME280;51842;47.450;8.654;2023-03-25T07:15:42;95290.56;;;6.46;98.85
44297;BME280;51842;47.450;8.654;2023-03-25T07:18:08;95300.16;;;6.75;95.50
44297;BME280;51842;47.450;8.654;2023-03-25T07:20:34;95306.47;;;6.95;94.75
44297;BME280;51842;47.450;8.654;2023-03-25T07:23:00;95297.44;;;6.91;91.51
44297;BME280;51842;47.450;8.654;2023-03-25T07:25:26;95298.59;;;7.01;92.30
44297;BME280;51842;47.450;8.654;2023-03-25T07:27:51;95304.97;;;7.05;91.29
44297;BME280;51842;47.450;8.654;2023-03-25T07:30:17;95301.78;;;7.03;90.38
44297;BME280;51842;47.450;8.654;2023-03-25T07:32:46;95315.53;;;7.00;91.42
44297;BME280;51842;47.450;8.654;2023-03-25T07:35:12;95312.13;;;7.04;91.76
44297;BME280;51842;47.450;8.654;2023-03-25T07:37:38;95308.00;;;7.13;90.91
44297;BME280;51842;47.450;8.654;2023-03-25T07:40:05;95316.72;;;7.14;92.06
44297;BME280;51842;47.450;8.654;2023-03-25T07:42:31;95311.94;;;7.11;91.61
44297;BME280;51842;47.450;8.654;2023-03-25T07:44:56;95312.59;;;6.96;91.06
44297;BME280;51842;47.450;8.654;2023-03-25T07:47:22;95308.78;;;6.87;90.94
44297;BME280;51842;47.450;8.654;2023-03-25T07:49:48;95309.13;;;6.95;92.96
44297;BME280;51842;47.450;8.654;2023-03-25T07:52:14;95298.41;;;6.85;91.45
44297;BME280;51842;47.450;8.654;2023-03-25T07:54:40;95311.41;;;6.87;92.32
44297;BME280;51842;47.450;8.654;2023-03-25T07:57:06;95310.44;;;6.93;93.07
44297;BME280;51842;47.450;8.654;2023-03-25T07:59:32;95305.88;;;6.88;92.82
44297;BME280;51842;47.450;8.654;2023-03-25T08:01:58;95305.97;;;6.99;93.27
44297;BME280;51842;47.450;8.654;2023-03-25T08:04:24;95297.50;;;6.97;92.79
44297;BME280;51842;47.450;8.654;2023-03-25T08:06:50;95309.59;;;6.92;93.62
44297;BME280;51842;47.450;8.654;2023-03-25T08:09:15;95300.84;;;6.87;93.03
44297;BME280;51842;47.450;8.654;2023-03-25T08:11:41;95300.19;;;6.80;92.29
44297;BME280;51842;47.450;8.654;2023-03-25T08:14:07;95293.25;;;6.73;94.24
44297;BME280;51842;47.450;8.654;2023-03-25T08:16:33;95296.88;;;6.67;95.09
44297;BME280;51842;47.450;8.654;2023-03-25T08:18:59;95294.69;;;6.59;94.38
44297;BME280;51842;47.450;8.654;2023-03-25T08:21:25;95295.47;;;6.60;95.84
44297;BME280;51842;47.450;8.654;2023-03-25T08:23:54;95292.44;;;6.51;95.36
44297;BME280;51842;47.450;8.654;2023-03-25T08:26:27;95306.16;;;6.48;96.01
44297;BME280;51842;47.450;8.654;2023-03-25T08:28:54;95300.69;;;6.55;97.88
44297;BME280;51842;47.450;8.654;2023-03-25T08:31:24;95299.47;;;6.40;96.72
44297;BME280;51842;47.450;8.654;2023-03-25T08:33:52;95302.16;;;6.45;99.13
44297;BME280;51842;47.450;8.654;2023-03-25T08:36:18;95300.81;;;6.43;99.91
44297;BME280;51842;47.450;8.654;2023-03-25T08:38:46;95313.91;;;6.33;100.00
44297;BME280;51842;47.450;8.654;2023-03-25T08:41:12;95316.88;;;6.36;100.00
44297;BME280;51842;47.450;8.654;2023-03-25T08:43:38;95320.84;;;6.39;100.00
44297;BME280;51842;47.450;8.654;2023-03-25T08:46:04;95308.50;;;6.44;100.00
44297;BME280;51842;47.450;8.654;2023-03-25T08:48:30;95304.56;;;6.47;100.00
44297;BME280;51842;47.450;8.654;2023-03-25T08:50:57;95302.53;;;6.54;100.00
44297;BME280;51842;47.450;8.654;2023-03-25T08:53:24;95301.19;;;6.52;100.00
44297;BME280;51842;47.450;8.654;2023-03-25T08:55:55;95297.13;;;6.66;100.00
44297;BME280;51842;47.450;8.654;2023-03-25T08:58:23;95299.38;;;6.74;100.00
44297;BME280;51842;47.450;8.654;2023-03-25T09:00:53;95293.09;;;6.80;100.00
44297;BME280;51842;47.450;8.654;2023-03-25T09:03:22;95279.59;;;6.82;98.60
44297;BME280;51842;47.450;8.654;2023-03-25T09:05:49;95286.97;;;6.80;98.63
44297;BME280;51842;47.450;8.654;2023-03-25T09:08:16;95285.78;;;6.92;99.95
44297;BME280;51842;47.450;8.654;2023-03-25T09:10:42;95279.81;;;7.02;99.88
44297;BME280;51842;47.450;8.654;2023-03-25T09:13:08;95282.69;;;7.01;98.24
44297;BME280;51842;47.450;8.654;2023-03-25T09:15:33;95280.53;;;6.98;97.33
44297;BME280;51842;47.450;8.654;2023-03-25T09:17:59;95277.16;;;7.02;98.53
44297;BME280;51842;47.450;8.654;2023-03-25T09:20:26;95273.09;;;6.94;97.05
44297;BME280;51842;47.450;8.654;2023-03-25T09:22:52;95275.75;;;6.94;98.00
44297;BME280;51842;47.450;8.654;2023-03-25T09:25:18;95283.88;;;6.88;96.84
44297;BME280;51842;47.450;8.654;2023-03-25T09:27:44;95280.38;;;6.82;97.06
44297;BME280;51842;47.450;8.654;2023-03-25T09:30:11;95280.50;;;6.70;96.50
44297;BME280;51842;47.450;8.654;2023-03-25T09:32:37;95268.25;;;6.86;97.17
44297;BME280;51842;47.450;8.654;2023-03-25T09:35:04;95254.84;;;6.98;97.94
44297;BME280;51842;47.450;8.654;2023-03-25T09:37:30;95264.59;;;7.19;97.95
44297;BME280;51842;47.450;8.654;2023-03-25T09:39:56;95262.59;;;7.32;96.96
44297;BME280;51842;47.450;8.654;2023-03-25T09:43:05;95260.25;;;7.68;98.12
44297;BME280;51842;47.450;8.654;2023-03-25T09:45:40;95259.63;;;7.93;96.98
44297;BME280;51842;47.450;8.654;2023-03-25T09:48:41;95250.81;;;8.24;96.51
44297;BME280;51842;47.450;8.654;2023-03-25T09:51:25;95262.09;;;8.52;92.59
44297;BME280;51842;47.450;8.654;2023-03-25T09:54:30;95256.09;;;8.72;89.19
44297;BME280;51842;47.450;8.654;2023-03-25T09:57:07;95262.59;;;9.22;88.73
44297;BME280;51842;47.450;8.654;2023-03-25T09:59:43;95261.03;;;9.41;82.80
44297;BME280;51842;47.450;8.654;2023-03-25T10:11:13;95295.06;;;9.55;86.29
44297;BME280;51842;47.450;8.654;2023-03-25T10:14:10;95288.94;;;9.29;83.93
44297;BME280;51842;47.450;8.654;2023-03-25T10:17:20;95267.63;;;9.23;83.58
44297;BME280;51842;47.450;8.654;2023-03-25T10:20:24;95289.16;;;9.27;79.94
44297;BME280;51842;47.450;8.654;2023-03-25T10:27:00;95282.50;;;9.14;79.63
44297;BME280;51842;47.450;8.654;2023-03-25T10:29:42;95268.72;;;9.27;77.98
44297;BME280;51842;47.450;8.654;2023-03-25T10:32:23;95278.50;;;9.07;76.91
44297;BME280;51842;47.450;8.654;2023-03-25T10:34:57;95263.09;;;9.14;76.56
44297;BME280;51842;47.450;8.654;2023-03-25T10:37:34;95278.03;;;9.35;77.09
44297;BME280;51842;47.450;8.654;2023-03-25T10:40:30;95280.69;;;9.45;77.77
44297;BME280;51842;47.450;8.654;2023-03-25T10:46:29;95278.88;;;9.56;75.70
44297;BME280;51842;47.450;8.654;2023-03-25T10:48:56;95280.44;;;9.78;73.92
44297;BME280;51842;47.450;8.654;2023-03-25T10:51:35;95277.69;;;10.49;73.69
44297;BME280;51842;47.450;8.654;2023-03-25T10:54:02;95287.13;;;10.96;74.70
44297;BME280;51842;47.450;8.654;2023-03-25T10:56:37;95279.66;;;11.03;70.23
44297;BME280;51842;47.450;8.654;2023-03-25T10:59:39;95282.16;;;10.74;69.80
44297;BME280;51842;47.450;8.654;2023-03-25T11:02:19;95287.31;;;10.40;71.33
44297;BME280;51842;47.450;8.654;2023-03-25T11:04:52;95281.22;;;10.29;71.95
44297;BME280;51842;47.450;8.654;2023-03-25T11:07:29;95272.97;;;10.41;70.81
44297;BME280;51842;47.450;8.654;2023-03-25T11:10:31;95275.91;;;10.04;72.05
44297;BME280;51842;47.450;8.654;2023-03-25T11:13:01;95289.25;;;9.93;71.14
44297;BME280;51842;47.450;8.654;2023-03-25T11:15:40;95268.75;;;9.73;72.33
44297;BME280;51842;47.450;8.654;2023-03-25T11:20:52;95296.38;;;9.37;75.59
44297;BME280;51842;47.450;8.654;2023-03-25T11:23:34;95279.63;;;9.36;80.18
44297;BME280;51842;47.450;8.654;2023-03-25T11:26:35;95290.00;;;9.27;84.21
44297;BME280;51842;47.450;8.654;2023-03-25T11:29:18;95299.50;;;9.08;86.01
44297;BME280;51842;47.450;8.654;2023-03-25T11:32:13;95294.06;;;8.72;88.13
44297;BME280;51842;47.450;8.654;2023-03-25T11:34:40;95292.66;;;8.49;88.82
44297;BME280;51842;47.450;8.654;2023-03-25T11:37:21;95304.53;;;8.42;90.77
44297;BME280;51842;47.450;8.654;2023-03-25T11:39:55;95316.41;;;8.34;90.52
44297;BME280;51842;47.450;8.654;2023-03-25T11:42:56;95308.44;;;8.34;92.12
44297;BME280;51842;47.450;8.654;2023-03-25T11:45:32;95315.34;;;8.35;92.32
44297;BME280;51842;47.450;8.654;2023-03-25T11:48:19;95307.06;;;8.26;92.04
44297;BME280;51842;47.450;8.654;2023-03-25T11:50:54;95315.22;;;8.15;94.23
44297;BME280;51842;47.450;8.654;2023-03-25T11:53:26;95316.03;;;8.15;93.70
44297;BME280;51842;47.450;8.654;2023-03-25T11:56:03;95325.69;;;7.94;95.50
44297;BME280;51842;47.450;8.654;2023-03-25T11:58:38;95318.19;;;7.86;94.69
44297;BME280;51842;47.450;8.654;2023-03-25T12:01:41;95300.22;;;7.93;95.05
44297;BME280;51842;47.450;8.654;2023-03-25T12:04:23;95295.72;;;7.94;93.09
44297;BME280;51842;47.450;8.654;2023-03-25T12:07:09;95290.69;;;7.97;90.22
44297;BME280;51842;47.450;8.654;2023-03-25T12:09:36;95297.13;;;8.06;90.41
44297;BME280;51842;47.450;8.654;2023-03-25T12:15:49;95298.59;;;8.29;89.79
44297;BME280;51842;47.450;8.654;2023-03-25T12:21:34;95291.03;;;8.43;89.45
44297;BME280;51842;47.450;8.654;2023-03-25T12:27:52;95264.03;;;8.67;87.53
44297;BME280;51842;47.450;8.654;2023-03-25T12:33:30;95270.13;;;8.67;84.22
44297;BME280;51842;47.450;8.654;2023-03-25T12:36:19;95262.22;;;8.77;80.14
44297;BME280;51842;47.450;8.654;2023-03-25T12:39:27;95255.38;;;9.02;76.68
44297;BME280;51842;47.450;8.654;2023-03-25T12:42:39;95252.22;;;9.31;71.56
44297;BME280;51842;47.450;8.654;2023-03-25T12:51:29;95240.00;;;9.91;66.57
44297;BME280;51842;47.450;8.654;2023-03-25T12:58:02;95244.13;;;11.13;62.57
44297;BME280;51842;47.450;8.654;2023-03-25T13:01:44;95249.03;;;10.96;60.62
44297;BME280;51842;47.450;8.654;2023-03-25T13:07:25;95250.06;;;11.78;60.10
44297;BME280;51842;47.450;8.654;2023-03-25T13:10:19;95238.91;;;12.35;55.86
44297;BME280;51842;47.450;8.654;2023-03-25T13:12:52;95256.34;;;12.51;55.14
44297;BME280;51842;47.450;8.654;2023-03-25T13:15:45;95241.78;;;12.62;54.66
44297;BME280;51842;47.450;8.654;2023-03-25T13:18:39;95250.41;;;12.78;52.49
44297;BME280;51842;47.450;8.654;2023-03-25T13:21:46;95244.06;;;12.93;52.18
44297;BME280;51842;47.450;8.654;2023-03-25T13:24:41;95253.56;;;13.04;53.36
44297;BME280;51842;47.450;8.654;2023-03-25T13:27:13;95244.53;;;13.19;51.01
44297;BME280;51842;47.450;8.654;2023-03-25T13:29:48;95243.91;;;13.27;51.03
44297;BME280;51842;47.450;8.654;2023-03-25T13:32:40;95246.31;;;13.29;50.47
44297;BME280;51842;47.450;8.654;2023-03-25T13:35:59;95229.88;;;13.54;50.05
44297;BME280;51842;47.450;8.654;2023-03-25T13:38:51;95248.16;;;13.47;49.86
44297;BME280;51842;47.450;8.654;2023-03-25T13:41:36;95258.59;;;13.49;48.76
44297;BME280;51842;47.450;8.654;2023-03-25T13:46:52;95254.34;;;13.29;49.46
44297;BME280;51842;47.450;8.654;2023-03-25T13:52:03;95263.31;;;13.89;48.57
44297;BME280;51842;47.450;8.654;2023-03-25T13:54:42;95260.47;;;14.74;48.94
44297;BME280;51842;47.450;8.654;2023-03-25T14:00:49;95262.63;;;13.27;49.29
44297;BME280;51842;47.450;8.654;2023-03-25T14:10:37;95265.63;;;13.20;51.29
44297;BME280;51842;47.450;8.654;2023-03-25T14:13:13;95253.41;;;12.95;52.70
44297;BME280;51842;47.450;8.654;2023-03-25T14:16:04;95267.72;;;13.80;53.98
44297;BME280;51842;47.450;8.654;2023-03-25T14:18:46;95263.59;;;13.88;51.34
44297;BME280;51842;47.450;8.654;2023-03-25T14:24:27;95284.69;;;13.76;50.75
44297;BME280;51842;47.450;8.654;2023-03-25T14:27:01;95283.03;;;13.61;51.81
44297;BME280;51842;47.450;8.654;2023-03-25T14:32:39;95270.53;;;14.22;50.29
44297;BME280;51842;47.450;8.654;2023-03-25T14:43:44;95254.25;;;14.32;48.71
44297;BME280;51842;47.450;8.654;2023-03-25T14:49:06;95253.47;;;14.18;49.22
44297;BME280;51842;47.450;8.654;2023-03-25T14:54:32;95248.63;;;14.33;46.85
44297;BME280;51842;47.450;8.654;2023-03-25T14:57:25;95256.94;;;14.32;47.52
44297;BME280;51842;47.450;8.654;2023-03-25T15:00:06;95254.84;;;14.29;47.50
44297;BME280;51842;47.450;8.654;2023-03-25T15:02:42;95255.28;;;14.50;47.70
44297;BME280;51842;47.450;8.654;2023-03-25T15:05:24;95256.38;;;15.18;46.67
44297;BME280;51842;47.450;8.654;2023-03-25T15:10:41;95249.66;;;14.51;44.54
44297;BME280;51842;47.450;8.654;2023-03-25T15:13:42;95242.66;;;14.50;45.00
44297;BME280;51842;47.450;8.654;2023-03-25T15:16:26;95248.81;;;14.37;44.92
44297;BME280;51842;47.450;8.654;2023-03-25T15:21:24;95246.47;;;14.63;45.69
44297;BME280;51842;47.450;8.654;2023-03-25T15:24:11;95246.75;;;13.69;46.72
44297;BME280;51842;47.450;8.654;2023-03-25T15:26:43;95247.75;;;13.40;47.56
44297;BME280;51842;47.450;8.654;2023-03-25T15:30:00;95257.41;;;13.17;48.79
44297;BME280;51842;47.450;8.654;2023-03-25T15:36:31;95245.09;;;12.54;50.77
44297;BME280;51842;47.450;8.654;2023-03-25T15:39:53;95253.94;;;12.25;52.00
44297;BME280;51842;47.450;8.654;2023-03-25T15:42:58;95255.91;;;11.86;61.54
44297;BME280;51842;47.450;8.654;2023-03-25T15:49:38;95267.19;;;11.33;70.04
44297;BME280;51842;47.450;8.654;2023-03-25T15:56:00;95263.88;;;10.42;66.62
44297;BME280;51842;47.450;8.654;2023-03-25T15:59:06;95270.31;;;10.15;65.54
44297;BME280;51842;47.450;8.654;2023-03-25T16:01:46;95265.56;;;9.92;64.10
44297;BME280;51842;47.450;8.654;2023-03-25T16:04:41;95267.41;;;9.86;66.51